createdAt,value
2017-11-07T00:00:10.751Z,25.17
2017-11-07T00:02:38.236Z,24.30
2017-11-07T00:05:06.476Z,24.57
2017-11-07T00:07:33.972Z,26.50
2017-11-07T00:10:02.220Z,25.70
2017-11-07T00:12:29.940Z,24.30
2017-11-07T00:14:57.417Z,25.10
2017-11-07T00:17:24.907Z,25.33
2017-11-07T00:19:52.380Z,25.20
2017-11-07T00:22:20.625Z,24.73
2017-11-07T00:24:48.219Z,25.10
2017-11-07T00:27:16.464Z,25.10
2017-11-07T00:29:43.947Z,25.70
2017-11-07T00:32:12.196Z,24.33
2017-11-07T00:34:39.689Z,26.90
2017-11-07T00:37:07.936Z,25.97
2017-11-07T00:39:35.407Z,26.20
2017-11-07T00:42:02.900Z,26.97
2017-11-07T00:44:30.375Z,26.37
2017-11-07T00:46:57.872Z,27.87
2017-11-07T00:49:25.354Z,25.33
2017-11-07T00:51:53.617Z,28.37
2017-11-07T00:54:21.093Z,25.67
2017-11-07T00:56:49.332Z,27.77
2017-11-07T00:59:16.831Z,28.17
2017-11-07T01:01:45.095Z,26.90
2017-11-07T01:04:13.347Z,29.53
2017-11-07T01:06:40.820Z,29.80
2017-11-07T01:09:09.096Z,30.67
2017-11-07T01:11:36.576Z,28.87
2017-11-07T01:14:04.824Z,26.23
2017-11-07T01:16:32.323Z,28.60
2017-11-07T01:18:59.821Z,28.77
2017-11-07T01:21:27.311Z,26.47
2017-11-07T01:23:54.780Z,29.97
2017-11-07T01:26:23.036Z,29.30
2017-11-07T01:28:50.507Z,28.20
2017-11-07T01:31:18.762Z,29.03
2017-11-07T01:33:46.248Z,23.77
2017-11-07T01:36:14.492Z,24.47
2017-11-07T01:38:42.031Z,17.70
2017-11-07T01:41:09.503Z,18.00
2017-11-07T01:43:36.972Z,19.87
2017-11-07T09:00:15.159Z,14.87
2017-11-07T09:02:42.662Z,14.93
2017-11-07T09:05:11.015Z,15.43
2017-11-07T09:07:38.493Z,14.60
2017-11-07T09:10:06.765Z,15.90
2017-11-07T09:12:35.008Z,16.47
2017-11-07T09:15:02.509Z,16.47
2017-11-07T09:17:30.773Z,16.53
2017-11-07T09:19:59.048Z,16.80
2017-11-07T09:22:27.292Z,19.13
2017-11-07T09:24:54.775Z,17.43
2017-11-07T09:27:22.355Z,17.57
2017-11-07T09:29:50.604Z,17.93
2017-11-07T09:32:18.100Z,19.87
2017-11-07T09:34:45.580Z,18.00
2017-11-07T09:37:13.083Z,17.60
2017-11-07T09:39:40.566Z,18.03
2017-11-07T09:42:08.809Z,17.80
2017-11-07T09:44:36.326Z,18.00
2017-11-07T09:47:03.799Z,17.87
2017-11-07T09:49:31.316Z,19.43
2017-11-07T09:51:59.565Z,18.37
2017-11-07T09:54:27.094Z,19.70
2017-11-07T09:56:54.567Z,19.83
2017-11-07T09:59:22.048Z,19.23
2017-11-07T10:01:49.569Z,18.20
2017-11-07T10:04:17.086Z,19.13
2017-11-07T10:06:45.348Z,19.30
2017-11-07T10:09:12.824Z,17.70
2017-11-07T10:11:41.095Z,20.17
2017-11-07T10:14:09.352Z,20.30
2017-11-07T10:16:36.827Z,19.40
2017-11-07T10:19:05.084Z,20.20
2017-11-07T10:21:32.563Z,20.50
2017-11-07T10:24:00.828Z,19.70
2017-11-07T10:26:28.316Z,21.20
2017-11-07T10:28:55.863Z,21.07
2017-11-07T10:31:24.111Z,21.73
2017-11-07T10:33:51.608Z,22.87
2017-11-07T10:36:19.184Z,23.30
2017-11-07T10:38:46.683Z,22.60
2017-11-07T10:41:14.190Z,24.60
2017-11-07T10:43:41.669Z,25.80
2017-11-07T10:46:09.171Z,24.03
2017-11-07T10:48:37.429Z,24.50
2017-11-07T10:51:04.907Z,25.03
2017-11-07T10:53:32.393Z,24.80
2017-11-07T10:56:00.752Z,25.63
2017-11-07T10:58:29.012Z,26.27
2017-11-07T11:00:56.479Z,25.83
2017-11-07T11:03:24.156Z,24.40
2017-11-07T11:05:52.408Z,23.77
2017-11-07T11:08:19.900Z,24.57
2017-11-07T11:10:48.170Z,24.50
2017-11-07T11:13:16.790Z,24.23
2017-11-07T11:15:44.295Z,25.47
2017-11-07T11:18:11.771Z,22.13
2017-11-07T11:20:40.146Z,21.67
2017-11-07T11:23:08.405Z,22.83
2017-11-07T11:25:35.888Z,23.67
2017-11-07T11:28:04.156Z,22.97
2017-11-07T11:30:32.396Z,23.33
2017-11-07T11:32:59.895Z,23.13
2017-11-07T11:35:28.132Z,22.70
2017-11-07T11:37:55.648Z,21.60
2017-11-07T11:40:23.117Z,22.20
2017-11-07T11:42:50.640Z,19.40
2017-11-07T11:45:18.891Z,22.10
2017-11-07T11:47:46.412Z,20.43
2017-11-07T11:50:13.892Z,19.90
2017-11-07T11:52:41.359Z,18.97
2017-11-07T11:55:08.851Z,19.40
2017-11-07T11:57:37.096Z,21.17
2017-11-07T12:00:04.588Z,22.10
2017-11-07T12:02:32.854Z,21.10
2017-11-07T12:05:01.154Z,20.73
2017-11-07T12:07:29.436Z,22.10
2017-11-07T12:09:56.919Z,20.80
2017-11-07T12:12:24.411Z,21.83
2017-11-07T12:14:51.913Z,23.63
2017-11-07T12:17:19.415Z,22.97
2017-11-07T12:19:46.895Z,21.30
2017-11-07T12:22:14.383Z,21.20
2017-11-07T12:24:41.869Z,24.77
2017-11-07T12:27:09.343Z,21.40
2017-11-07T12:29:36.975Z,22.67
2017-11-07T12:32:04.455Z,23.17
2017-11-07T12:34:31.952Z,23.57
2017-11-07T12:36:59.475Z,22.60
2017-11-07T12:39:26.972Z,23.50
2017-11-07T12:41:54.444Z,24.30
2017-11-07T12:44:22.679Z,24.70
2017-11-07T12:46:50.168Z,29.13
2017-11-07T12:49:18.416Z,24.03
2017-11-07T12:51:57.604Z,25.57
2017-11-07T12:54:25.080Z,24.70
2017-11-07T12:56:52.576Z,25.50
2017-11-07T12:59:20.046Z,26.67
2017-11-07T13:01:47.515Z,24.40
2017-11-07T13:04:15.787Z,26.20
2017-11-07T13:06:44.036Z,25.53
2017-11-07T13:09:11.607Z,25.73
2017-11-07T13:11:39.089Z,23.90
2017-11-07T13:14:07.353Z,25.10
2017-11-07T13:16:34.827Z,25.93
2017-11-07T13:19:03.081Z,27.10
2017-11-07T13:21:30.569Z,25.57
2017-11-07T13:23:58.040Z,24.17
2017-11-07T13:26:25.532Z,35.50
2017-11-07T13:28:53.000Z,24.40
2017-11-07T13:31:26.304Z,25.47
2017-11-07T13:33:54.552Z,25.10
2017-11-07T13:36:22.036Z,24.20
2017-11-07T13:38:49.531Z,24.90
2017-11-07T13:41:17.027Z,24.93
2017-11-07T13:43:44.512Z,39.57
2017-11-07T13:46:11.988Z,28.00
2017-11-07T13:48:40.301Z,27.07
2017-11-07T13:51:07.802Z,26.90
2017-11-07T13:53:35.281Z,27.40
2017-11-07T13:56:03.540Z,26.93
2017-11-07T13:58:31.017Z,28.00
2017-11-07T14:00:59.279Z,28.53
2017-11-07T14:03:26.775Z,28.60
2017-11-07T14:05:54.272Z,29.00
2017-11-07T14:08:21.748Z,28.37
2017-11-07T14:10:49.225Z,26.97
2017-11-07T14:13:17.480Z,27.73
2017-11-07T14:15:44.962Z,28.30
2017-11-07T14:18:13.224Z,30.70
2017-11-07T14:20:40.705Z,29.57
2017-11-07T14:23:08.983Z,31.40
2017-11-07T14:25:37.227Z,28.03
2017-11-07T14:28:04.697Z,28.67
2017-11-07T14:30:32.185Z,26.90
2017-11-07T14:32:59.689Z,28.17
2017-11-07T14:35:27.180Z,28.97
2017-11-07T14:37:55.460Z,31.37
2017-11-07T14:40:23.771Z,29.77
2017-11-07T14:42:51.240Z,28.37
2017-11-07T14:45:18.712Z,28.70
2017-11-07T14:47:46.209Z,28.63
2017-11-07T14:50:14.472Z,31.13
2017-11-07T14:52:41.965Z,28.87
2017-11-07T14:55:10.203Z,40.43
2017-11-07T14:57:37.704Z,37.10
2017-11-07T15:00:05.180Z,28.37
2017-11-07T15:02:32.660Z,30.00
2017-11-07T15:05:00.148Z,28.60
2017-11-07T15:07:27.624Z,28.13
2017-11-07T15:09:55.888Z,28.47
2017-11-07T15:12:24.132Z,28.73
2017-11-07T15:14:51.634Z,29.87
2017-11-07T15:17:19.881Z,28.23
2017-11-07T15:19:47.363Z,28.83
2017-11-07T15:22:15.619Z,26.80
2017-11-07T15:24:43.104Z,30.90
2017-11-07T15:27:11.366Z,28.17
2017-11-07T15:29:39.639Z,29.07
2017-11-07T15:32:07.137Z,27.37
2017-11-07T15:34:34.614Z,28.23
2017-11-07T15:37:02.099Z,28.07
2017-11-07T15:39:29.595Z,27.20
2017-11-07T15:41:57.857Z,27.70
2017-11-07T15:44:26.120Z,28.73
2017-11-07T15:46:53.584Z,28.77
2017-11-07T15:49:21.079Z,27.50
2017-11-07T15:51:48.575Z,29.13
2017-11-07T15:54:16.056Z,28.43
2017-11-07T15:56:43.544Z,30.30
2017-11-07T15:59:11.018Z,31.53
2017-11-07T16:01:38.513Z,27.43
2017-11-07T16:04:05.991Z,26.13
2017-11-07T16:06:33.568Z,28.00
2017-11-07T16:09:01.808Z,26.70
2017-11-07T16:11:29.288Z,27.40
2017-11-07T16:13:57.553Z,29.57
2017-11-07T16:16:25.792Z,27.53
2017-11-07T16:18:53.279Z,26.57
2017-11-07T16:21:20.766Z,28.43
2017-11-07T16:23:49.024Z,43.97
2017-11-07T16:26:16.515Z,26.97
2017-11-07T16:28:44.006Z,28.40
2017-11-07T16:31:11.508Z,27.07
2017-11-07T16:33:38.997Z,24.80
2017-11-07T16:36:06.498Z,30.27
2017-11-07T16:38:34.003Z,26.83
2017-11-07T16:41:02.250Z,26.70
2017-11-07T16:43:29.740Z,25.90
2017-11-07T16:45:57.975Z,29.43
2017-11-07T16:48:25.510Z,28.90
2017-11-07T16:50:53.055Z,30.77
2017-11-07T16:53:20.548Z,30.10
2017-11-07T16:55:48.037Z,30.50
2017-11-07T16:58:16.280Z,30.57
2017-11-07T17:00:44.564Z,30.30
2017-11-07T17:03:12.072Z,29.47
2017-11-07T17:05:39.576Z,33.30
2017-11-07T17:08:07.061Z,30.50
2017-11-07T17:10:35.324Z,29.97
2017-11-07T17:13:02.808Z,30.10
2017-11-07T17:15:31.056Z,29.23
2017-11-07T17:17:58.551Z,30.33
2017-11-07T17:20:26.787Z,29.03
2017-11-07T17:22:54.279Z,31.00
2017-11-07T17:25:22.536Z,28.60
2017-11-07T17:27:50.039Z,30.20
2017-11-07T17:30:17.551Z,35.40
2017-11-07T17:32:45.028Z,29.97
2017-11-07T17:35:13.333Z,30.90
2017-11-07T17:37:40.809Z,28.30
2017-11-07T17:40:08.308Z,29.13
2017-11-07T17:42:36.583Z,29.60
2017-11-07T17:45:04.058Z,30.87
2017-11-07T17:47:32.309Z,30.50
2017-11-07T17:50:00.605Z,28.67
2017-11-07T17:52:28.876Z,29.17
2017-11-07T17:54:57.148Z,30.43
2017-11-07T17:57:25.419Z,30.53
2017-11-07T19:35:54.248Z,21.17
2017-11-07T19:38:21.740Z,21.13
2017-11-07T19:40:49.255Z,22.30
2017-11-07T19:43:16.736Z,24.60
2017-11-07T19:45:44.215Z,22.63
2017-11-07T19:48:12.475Z,21.33
2017-11-07T19:50:39.984Z,23.13
2017-11-07T19:53:07.484Z,21.93
2017-11-07T19:55:34.971Z,22.37
2017-11-07T19:58:03.248Z,23.07
2017-11-07T20:00:31.487Z,22.30
2017-11-07T20:02:58.964Z,22.30
2017-11-07T20:05:26.455Z,21.03
2017-11-07T20:07:54.743Z,21.97
2017-11-07T20:10:22.236Z,20.20
2017-11-07T20:12:49.727Z,22.03
2017-11-07T20:15:17.231Z,21.67
2017-11-07T20:17:44.715Z,22.37
2017-11-07T20:20:12.203Z,21.03
2017-11-07T20:22:39.686Z,23.10
2017-11-07T20:25:07.180Z,21.50
2017-11-07T20:27:34.668Z,22.80
2017-11-07T20:30:02.997Z,22.40
2017-11-07T20:32:30.517Z,23.20
2017-11-07T20:34:58.025Z,22.57
2017-11-07T20:37:25.531Z,21.73
2017-11-07T20:39:54.536Z,22.83
2017-11-07T20:42:22.107Z,22.77
2017-11-07T20:44:50.365Z,25.27
2017-11-07T20:47:18.620Z,21.97
2017-11-07T20:49:46.115Z,22.93
2017-11-07T20:52:13.616Z,22.50
2017-11-07T20:54:41.088Z,21.90
2017-11-07T20:57:08.610Z,23.60
2017-11-07T20:59:36.102Z,22.70
2017-11-07T21:02:03.662Z,23.70
2017-11-07T21:04:31.135Z,21.83
2017-11-07T21:06:58.667Z,22.57
2017-11-07T21:09:26.157Z,22.00
2017-11-07T21:11:53.634Z,21.93
2017-11-07T21:14:21.913Z,21.60
2017-11-07T21:16:50.184Z,22.37
2017-11-07T21:19:18.444Z,23.57
2017-11-07T21:21:45.921Z,22.33
2017-11-07T21:24:14.201Z,21.67
2017-11-07T21:26:42.448Z,22.60
2017-11-07T21:29:09.933Z,22.03
2017-11-07T21:31:38.259Z,22.90
2017-11-07T21:34:05.740Z,21.57
2017-11-07T21:36:33.227Z,23.20
2017-11-07T21:39:01.488Z,22.70
2017-11-07T21:41:29.019Z,21.90
2017-11-07T21:43:56.488Z,21.50
2017-11-07T21:46:23.981Z,30.23
2017-11-07T21:48:52.232Z,23.73
2017-11-07T21:51:19.708Z,20.80
2017-11-07T21:53:47.967Z,21.47
2017-11-07T21:56:15.448Z,21.70
2017-11-07T21:58:43.711Z,20.93
2017-11-07T22:01:12.021Z,21.37
2017-11-07T22:03:39.500Z,21.60
2017-11-07T22:06:06.991Z,23.30
2017-11-07T22:08:34.472Z,20.70
2017-11-07T22:11:02.748Z,21.50
2017-11-07T22:13:30.997Z,20.83
2017-11-07T22:15:58.500Z,21.47
2017-11-07T22:18:26.747Z,23.00
2017-11-07T22:20:54.223Z,23.73
2017-11-07T22:23:26.299Z,23.27
2017-11-07T22:25:53.786Z,23.97
2017-11-07T22:28:21.278Z,22.27
2017-11-07T22:30:48.798Z,21.73
2017-11-07T22:33:16.299Z,23.13
2017-11-07T22:35:43.773Z,23.70
2017-11-07T22:38:12.036Z,23.87
2017-11-07T22:40:39.532Z,25.47
2017-11-07T22:43:07.774Z,25.27
2017-11-07T22:45:35.295Z,24.10
2017-11-07T22:48:02.772Z,24.80
2017-11-07T22:50:30.264Z,25.67
2017-11-07T22:52:58.514Z,25.50
2017-11-07T22:55:25.997Z,25.77
2017-11-07T22:57:53.519Z,25.43
2017-11-07T23:00:21.006Z,25.30
2017-11-07T23:02:48.500Z,24.63
2017-11-07T23:05:15.993Z,25.97
2017-11-07T23:07:43.491Z,24.67
2017-11-07T23:10:11.735Z,24.73
2017-11-07T23:12:39.219Z,25.80
2017-11-07T23:15:06.713Z,26.17
2017-11-07T23:17:34.196Z,27.90
2017-11-07T23:20:01.685Z,27.03
2017-11-07T23:22:29.159Z,26.67
2017-11-07T23:24:57.439Z,29.33
2017-11-07T23:27:25.693Z,28.83
2017-11-07T23:29:53.172Z,26.33
2017-11-07T23:32:21.428Z,27.57
2017-11-07T23:34:48.941Z,27.20
2017-11-07T23:37:16.432Z,27.70
2017-11-07T23:39:43.904Z,28.10
2017-11-07T23:42:11.399Z,26.70
2017-11-07T23:44:38.887Z,27.63
2017-11-07T23:47:06.370Z,26.33
2017-11-07T23:49:33.874Z,26.30
2017-11-07T23:52:02.112Z,24.87
2017-11-07T23:54:29.606Z,24.70
2017-11-07T23:56:57.904Z,26.00
2017-11-07T23:59:25.400Z,24.27
